sensor_id;sensor_type;location;lat;lon;timestamp;temperature;humidity
6252;DHT22;3159;52.414;9.784;2023-01-06T00:00:29;9.20;99.90
6252;DHT22;3159;52.414;9.784;2023-01-06T00:02:57;9.10;99.90
6252;DHT22;3159;52.414;9.784;2023-01-06T00:05:24;9.10;99.90
6252;DHT22;3159;52.414;9.784;2023-01-06T00:07:51;9.10;99.90
6252;DHT22;3159;52.414;9.784;2023-01-06T00:10:18;9.00;99.90
6252;DHT22;3159;52.414;9.784;2023-01-06T00:12:46;9.10;99.90
6252;DHT22;3159;52.414;9.784;2023-01-06T00:15:13;9.00;99.90
6252;DHT22;3159;52.414;9.784;2023-01-06T00:17:41;9.10;99.90
6252;DHT22;3159;52.414;9.784;2023-01-06T00:20:10;9.10;99.90
6252;DHT22;3159;52.414;9.784;2023-01-06T00:22:38;9.20;99.90
6252;DHT22;3159;52.414;9.784;2023-01-06T00:25:06;9.10;99.90
6252;DHT22;3159;52.414;9.784;2023-01-06T00:27:34;9.20;99.90
6252;DHT22;3159;52.414;9.784;2023-01-06T00:30:01;9.20;99.90
6252;DHT22;3159;52.414;9.784;2023-01-06T00:32:28;9.30;99.90
6252;DHT22;3159;52.414;9.784;2023-01-06T00:34:55;9.20;99.90
6252;DHT22;3159;52.414;9.784;2023-01-06T00:37:23;9.20;99.90
6252;DHT22;3159;52.414;9.784;2023-01-06T00:39:49;9.20;99.90
6252;DHT22;3159;52.414;9.784;2023-01-06T00:42:16;9.20;99.90
6252;DHT22;3159;52.414;9.784;2023-01-06T00:44:43;9.20;99.90
6252;DHT22;3159;52.414;9.784;2023-01-06T00:47:10;9.20;99.90
6252;DHT22;3159;52.414;9.784;2023-01-06T00:49:37;9.20;99.90
6252;DHT22;3159;52.414;9.784;2023-01-06T00:52:04;9.10;99.90
6252;DHT22;3159;52.414;9.784;2023-01-06T00:54:32;9.20;99.90
6252;DHT22;3159;52.414;9.784;2023-01-06T00:57:01;9.20;99.90
6252;DHT22;3159;52.414;9.784;2023-01-06T00:59:28;9.20;99.90
6252;DHT22;3159;52.414;9.784;2023-01-06T01:01:56;9.20;99.90
6252;DHT22;3159;52.414;9.784;2023-01-06T01:04:24;9.30;99.90
6252;DHT22;3159;52.414;9.784;2023-01-06T01:06:52;9.20;99.90
6252;DHT22;3159;52.414;9.784;2023-01-06T01:09:21;9.20;99.90
6252;DHT22;3159;52.414;9.784;2023-01-06T01:11:50;9.20;99.90
6252;DHT22;3159;52.414;9.784;2023-01-06T01:14:37;9.20;99.90
6252;DHT22;3159;52.414;9.784;2023-01-06T01:17:05;9.10;99.90
6252;DHT22;3159;52.414;9.784;2023-01-06T01:19:32;9.10;99.90
6252;DHT22;3159;52.414;9.784;2023-01-06T01:21:59;9.10;99.90
6252;DHT22;3159;52.414;9.784;2023-01-06T01:24:26;9.20;99.90
6252;DHT22;3159;52.414;9.784;2023-01-06T01:26:54;9.10;99.90
6252;DHT22;3159;52.414;9.784;2023-01-06T01:29:21;9.20;99.90
6252;DHT22;3159;52.414;9.784;2023-01-06T01:31:48;9.20;99.90
6252;DHT22;3159;52.414;9.784;2023-01-06T01:34:15;9.20;99.90
6252;DHT22;3159;52.414;9.784;2023-01-06T01:36:44;9.20;99.90
6252;DHT22;3159;52.414;9.784;2023-01-06T01:39:13;9.20;99.90
6252;DHT22;3159;52.414;9.784;2023-01-06T01:41:40;9.20;99.90
6252;DHT22;3159;52.414;9.784;2023-01-06T01:47:14;9.20;99.90
6252;DHT22;3159;52.414;9.784;2023-01-06T01:49:45;9.20;99.90
6252;DHT22;3159;52.414;9.784;2023-01-06T01:52:13;9.30;99.90
6252;DHT22;3159;52.414;9.784;2023-01-06T01:54:41;9.30;99.90
6252;DHT22;3159;52.414;9.784;2023-01-06T01:57:12;9.30;99.90
6252;DHT22;3159;52.414;9.784;2023-01-06T01:59:41;9.40;99.90
6252;DHT22;3159;52.414;9.784;2023-01-06T02:02:08;9.30;99.90
6252;DHT22;3159;52.414;9.784;2023-01-06T02:04:40;9.40;99.90
6252;DHT22;3159;52.414;9.784;2023-01-06T02:07:10;9.30;99.90
6252;DHT22;3159;52.414;9.784;2023-01-06T02:09:41;9.40;99.90
6252;DHT22;3159;52.414;9.784;2023-01-06T02:12:09;9.40;99.90
6252;DHT22;3159;52.414;9.784;2023-01-06T02:14:36;9.40;99.90
6252;DHT22;3159;52.414;9.784;2023-01-06T02:20:32;9.40;99.90
6252;DHT22;3159;52.414;9.784;2023-01-06T02:23:35;9.50;99.90
6252;DHT22;3159;52.414;9.784;2023-01-06T02:32:25;9.60;99.90
6252;DHT22;3159;52.414;9.784;2023-01-06T02:35:02;9.60;99.90
6252;DHT22;3159;52.414;9.784;2023-01-06T02:37:42;9.60;99.90
6252;DHT22;3159;52.414;9.784;2023-01-06T02:40:26;9.60;99.90
6252;DHT22;3159;52.414;9.784;2023-01-06T02:43:02;9.60;99.90
6252;DHT22;3159;52.414;9.784;2023-01-06T02:45:38;9.60;99.90
6252;DHT22;3159;52.414;9.784;2023-01-06T02:48:11;9.60;99.90
6252;DHT22;3159;52.414;9.784;2023-01-06T02:50:45;9.60;99.90
6252;DHT22;3159;52.414;9.784;2023-01-06T02:53:19;9.60;99.90
6252;DHT22;3159;52.414;9.784;2023-01-06T02:55:50;9.60;99.90
6252;DHT22;3159;52.414;9.784;2023-01-06T02:58:25;9.60;99.90
6252;DHT22;3159;52.414;9.784;2023-01-06T03:00:56;9.50;99.90
6252;DHT22;3159;52.414;9.784;2023-01-06T03:03:29;9.50;99.90
6252;DHT22;3159;52.414;9.784;2023-01-06T03:06:03;9.50;99.90
6252;DHT22;3159;52.414;9.784;2023-01-06T03:08:31;9.50;99.90
6252;DHT22;3159;52.414;9.784;2023-01-06T03:10:59;9.60;99.90
6252;DHT22;3159;52.414;9.784;2023-01-06T03:13:31;9.60;99.90
6252;DHT22;3159;52.414;9.784;2023-01-06T03:15:59;9.60;99.90
6252;DHT22;3159;52.414;9.784;2023-01-06T03:18:27;9.60;99.90
6252;DHT22;3159;52.414;9.784;2023-01-06T03:20:55;9.60;99.90
6252;DHT22;3159;52.414;9.784;2023-01-06T03:23:23;9.70;99.90
6252;DHT22;3159;52.414;9.784;2023-01-06T03:25:51;9.70;99.90
6252;DHT22;3159;52.414;9.784;2023-01-06T03:28:17;9.70;99.90
6252;DHT22;3159;52.414;9.784;2023-01-06T03:30:50;9.70;99.90
6252;DHT22;3159;52.414;9.784;2023-01-06T03:33:24;9.70;99.90
6252;DHT22;3159;52.414;9.784;2023-01-06T03:36:07;9.80;99.90
6252;DHT22;3159;52.414;9.784;2023-01-06T03:38:41;9.80;99.90
6252;DHT22;3159;52.414;9.784;2023-01-06T03:41:18;9.80;99.90
6252;DHT22;3159;52.414;9.784;2023-01-06T03:43:56;9.80;99.90
6252;DHT22;3159;52.414;9.784;2023-01-06T03:46:28;9.80;99.90
6252;DHT22;3159;52.414;9.784;2023-01-06T03:49:06;9.90;99.90
6252;DHT22;3159;52.414;9.784;2023-01-06T03:51:40;9.80;99.90
6252;DHT22;3159;52.414;9.784;2023-01-06T03:54:14;9.90;99.90
6252;DHT22;3159;52.414;9.784;2023-01-06T03:56:47;9.90;99.90
6252;DHT22;3159;52.414;9.784;2023-01-06T03:59:19;9.90;99.90
6252;DHT22;3159;52.414;9.784;2023-01-06T04:01:47;9.80;99.90
6252;DHT22;3159;52.414;9.784;2023-01-06T04:04:15;9.90;99.90
6252;DHT22;3159;52.414;9.784;2023-01-06T04:06:44;9.90;99.90
6252;DHT22;3159;52.414;9.784;2023-01-06T04:09:11;9.80;99.90
6252;DHT22;3159;52.414;9.784;2023-01-06T04:11:38;9.90;99.90
6252;DHT22;3159;52.414;9.784;2023-01-06T04:14:22;9.90;99.90
6252;DHT22;3159;52.414;9.784;2023-01-06T04:16:49;9.90;99.90
6252;DHT22;3159;52.414;9.784;2023-01-06T04:19:16;9.90;99.90
6252;DHT22;3159;52.414;9.784;2023-01-06T04:21:44;9.90;99.90
6252;DHT22;3159;52.414;9.784;2023-01-06T04:24:11;9.90;99.90
6252;DHT22;3159;52.414;9.784;2023-01-06T04:26:38;9.90;99.90
6252;DHT22;3159;52.414;9.784;2023-01-06T04:29:05;9.90;99.90
6252;DHT22;3159;52.414;9.784;2023-01-06T04:31:31;9.90;99.90
6252;DHT22;3159;52.414;9.784;2023-01-06T04:33:58;10.00;99.90
6252;DHT22;3159;52.414;9.784;2023-01-06T04:36:25;10.00;99.90
6252;DHT22;3159;52.414;9.784;2023-01-06T04:38:53;10.00;99.90
6252;DHT22;3159;52.414;9.784;2023-01-06T04:41:20;10.00;99.90
6252;DHT22;3159;52.414;9.784;2023-01-06T04:43:47;10.00;99.90
6252;DHT22;3159;52.414;9.784;2023-01-06T04:46:14;10.00;99.90
6252;DHT22;3159;52.414;9.784;2023-01-06T04:48:41;10.10;99.90
6252;DHT22;3159;52.414;9.784;2023-01-06T04:51:09;10.00;99.90
6252;DHT22;3159;52.414;9.784;2023-01-06T04:53:38;10.00;99.90
6252;DHT22;3159;52.414;9.784;2023-01-06T04:56:09;10.10;99.90
6252;DHT22;3159;52.414;9.784;2023-01-06T04:58:37;10.10;99.90
6252;DHT22;3159;52.414;9.784;2023-01-06T05:01:05;10.00;99.90
6252;DHT22;3159;52.414;9.784;2023-01-06T05:03:32;10.10;99.90
6252;DHT22;3159;52.414;9.784;2023-01-06T05:06:01;10.10;99.90
6252;DHT22;3159;52.414;9.784;2023-01-06T05:08:28;10.10;99.90
6252;DHT22;3159;52.414;9.784;2023-01-06T05:10:59;10.10;99.90
6252;DHT22;3159;52.414;9.784;2023-01-06T05:13:28;10.10;99.90
6252;DHT22;3159;52.414;9.784;2023-01-06T05:15:56;10.10;99.90
6252;DHT22;3159;52.414;9.784;2023-01-06T05:18:23;10.10;99.90
6252;DHT22;3159;52.414;9.784;2023-01-06T05:20:50;10.00;99.90
6252;DHT22;3159;52.414;9.784;2023-01-06T05:23:17;10.10;99.90
6252;DHT22;3159;52.414;9.784;2023-01-06T05:25:44;10.10;99.90
6252;DHT22;3159;52.414;9.784;2023-01-06T05:28:12;10.10;99.90
6252;DHT22;3159;52.414;9.784;2023-01-06T05:30:40;10.10;99.90
6252;DHT22;3159;52.414;9.784;2023-01-06T05:33:07;10.10;99.90
6252;DHT22;3159;52.414;9.784;2023-01-06T05:35:34;10.10;99.90
6252;DHT22;3159;52.414;9.784;2023-01-06T05:38:01;10.10;99.90
6252;DHT22;3159;52.414;9.784;2023-01-06T05:40:28;10.10;99.90
6252;DHT22;3159;52.414;9.784;2023-01-06T05:42:56;10.10;99.90
6252;DHT22;3159;52.414;9.784;2023-01-06T05:45:23;10.10;99.90
6252;DHT22;3159;52.414;9.784;2023-01-06T05:47:52;10.10;99.90
6252;DHT22;3159;52.414;9.784;2023-01-06T05:50:18;10.20;99.90
6252;DHT22;3159;52.414;9.784;2023-01-06T05:52:45;10.20;99.90
6252;DHT22;3159;52.414;9.784;2023-01-06T05:55:12;10.20;99.90
6252;DHT22;3159;52.414;9.784;2023-01-06T05:57:39;10.10;99.90
6252;DHT22;3159;52.414;9.784;2023-01-06T06:00:07;10.10;99.90
6252;DHT22;3159;52.414;9.784;2023-01-06T06:02:34;10.10;99.90
6252;DHT22;3159;52.414;9.784;2023-01-06T06:05:02;10.10;99.90
6252;DHT22;3159;52.414;9.784;2023-01-06T06:07:29;10.20;99.90
6252;DHT22;3159;52.414;9.784;2023-01-06T06:09:56;10.20;99.90
6252;DHT22;3159;52.414;9.784;2023-01-06T06:12:23;10.20;99.90
6252;DHT22;3159;52.414;9.784;2023-01-06T06:14:49;10.20;99.90
6252;DHT22;3159;52.414;9.784;2023-01-06T06:17:16;10.30;99.90
6252;DHT22;3159;52.414;9.784;2023-01-06T06:19:43;10.30;99.90
6252;DHT22;3159;52.414;9.784;2023-01-06T06:22:11;10.20;99.90
6252;DHT22;3159;52.414;9.784;2023-01-06T06:24:38;10.20;99.90
6252;DHT22;3159;52.414;9.784;2023-01-06T06:27:05;10.20;99.90
6252;DHT22;3159;52.414;9.784;2023-01-06T06:29:32;10.20;99.90
6252;DHT22;3159;52.414;9.784;2023-01-06T06:31:58;10.20;99.90
6252;DHT22;3159;52.414;9.784;2023-01-06T06:34:25;10.30;99.90
6252;DHT22;3159;52.414;9.784;2023-01-06T06:36:52;10.30;99.90
6252;DHT22;3159;52.414;9.784;2023-01-06T06:39:21;10.30;99.90
6252;DHT22;3159;52.414;9.784;2023-01-06T06:41:47;10.30;99.90
6252;DHT22;3159;52.414;9.784;2023-01-06T06:44:14;10.30;99.90
6252;DHT22;3159;52.414;9.784;2023-01-06T06:46:41;10.30;99.90
6252;DHT22;3159;52.414;9.784;2023-01-06T06:49:08;10.30;99.90
6252;DHT22;3159;52.414;9.784;2023-01-06T06:51:35;10.40;99.90
6252;DHT22;3159;52.414;9.784;2023-01-06T06:54:02;10.30;99.90
6252;DHT22;3159;52.414;9.784;2023-01-06T06:56:30;10.30;99.90
6252;DHT22;3159;52.414;9.784;2023-01-06T06:58:57;10.30;99.90
6252;DHT22;3159;52.414;9.784;2023-01-06T07:01:23;10.30;99.90
6252;DHT22;3159;52.414;9.784;2023-01-06T07:03:50;10.30;99.90
6252;DHT22;3159;52.414;9.784;2023-01-06T07:06:19;10.30;99.90
6252;DHT22;3159;52.414;9.784;2023-01-06T07:08:47;10.30;99.90
6252;DHT22;3159;52.414;9.784;2023-01-06T07:11:14;10.30;99.90
6252;DHT22;3159;52.414;9.784;2023-01-06T07:13:42;10.30;99.90
6252;DHT22;3159;52.414;9.784;2023-01-06T07:16:09;10.40;99.90
6252;DHT22;3159;52.414;9.784;2023-01-06T07:18:36;10.40;99.90
6252;DHT22;3159;52.414;9.784;2023-01-06T07:21:04;10.40;99.90
6252;DHT22;3159;52.414;9.784;2023-01-06T07:23:31;10.40;99.90
6252;DHT22;3159;52.414;9.784;2023-01-06T07:25:59;10.40;99.90
6252;DHT22;3159;52.414;9.784;2023-01-06T07:28:28;10.40;99.90
6252;DHT22;3159;52.414;9.784;2023-01-06T07:30:56;10.40;99.90
6252;DHT22;3159;52.414;9.784;2023-01-06T07:33:23;10.40;99.90
6252;DHT22;3159;52.414;9.784;2023-01-06T07:35:51;10.30;99.90
6252;DHT22;3159;52.414;9.784;2023-01-06T07:38:19;10.40;99.90
6252;DHT22;3159;52.414;9.784;2023-01-06T07:40:46;10.30;99.90
6252;DHT22;3159;52.414;9.784;2023-01-06T07:43:12;10.30;99.90
6252;DHT22;3159;52.414;9.784;2023-01-06T07:45:39;10.40;99.90
6252;DHT22;3159;52.414;9.784;2023-01-06T07:48:07;10.40;99.90
6252;DHT22;3159;52.414;9.784;2023-01-06T07:50:34;10.40;99.90
6252;DHT22;3159;52.414;9.784;2023-01-06T07:53:01;10.30;99.90
6252;DHT22;3159;52.414;9.784;2023-01-06T07:55:28;10.40;99.90
6252;DHT22;3159;52.414;9.784;2023-01-06T07:57:55;10.40;99.90
6252;DHT22;3159;52.414;9.784;2023-01-06T08:00:23;10.40;99.90
6252;DHT22;3159;52.414;9.784;2023-01-06T08:02:49;10.40;99.90
6252;DHT22;3159;52.414;9.784;2023-01-06T08:05:17;10.40;99.90
6252;DHT22;3159;52.414;9.784;2023-01-06T08:07:44;10.40;99.90
6252;DHT22;3159;52.414;9.784;2023-01-06T08:10:11;10.40;99.90
6252;DHT22;3159;52.414;9.784;2023-01-06T08:12:38;10.50;99.90
6252;DHT22;3159;52.414;9.784;2023-01-06T08:15:06;10.40;99.90
6252;DHT22;3159;52.414;9.784;2023-01-06T08:17:32;10.40;99.90
6252;DHT22;3159;52.414;9.784;2023-01-06T08:19:59;10.50;99.90
6252;DHT22;3159;52.414;9.784;2023-01-06T08:22:27;10.50;99.90
6252;DHT22;3159;52.414;9.784;2023-01-06T08:24:54;10.50;99.90
6252;DHT22;3159;52.414;9.784;2023-01-06T08:27:21;10.50;99.90
6252;DHT22;3159;52.414;9.784;2023-01-06T08:29:48;10.50;99.90
6252;DHT22;3159;52.414;9.784;2023-01-06T08:32:17;10.50;99.90
6252;DHT22;3159;52.414;9.784;2023-01-06T08:34:43;10.50;99.90
6252;DHT22;3159;52.414;9.784;2023-01-06T08:37:10;10.60;99.90
6252;DHT22;3159;52.414;9.784;2023-01-06T08:39:38;10.50;99.90
6252;DHT22;3159;52.414;9.784;2023-01-06T08:42:05;10.60;99.90
6252;DHT22;3159;52.414;9.784;2023-01-06T08:44:32;10.60;99.90
6252;DHT22;3159;52.414;9.784;2023-01-06T08:46:59;10.60;99.90
6252;DHT22;3159;52.414;9.784;2023-01-06T08:49:26;10.60;99.90
6252;DHT22;3159;52.414;9.784;2023-01-06T08:51:53;10.60;99.90
6252;DHT22;3159;52.414;9.784;2023-01-06T08:54:19;10.60;99.90
6252;DHT22;3159;52.414;9.784;2023-01-06T08:56:48;10.70;99.90
6252;DHT22;3159;52.414;9.784;2023-01-06T08:59:16;10.70;99.90
6252;DHT22;3159;52.414;9.784;2023-01-06T09:01:43;10.70;99.90
6252;DHT22;3159;52.414;9.784;2023-01-06T09:04:11;10.80;99.90
6252;DHT22;3159;52.414;9.784;2023-01-06T09:06:40;10.80;99.90
6252;DHT22;3159;52.414;9.784;2023-01-06T09:09:08;10.80;99.90
6252;DHT22;3159;52.414;9.784;2023-01-06T09:11:40;10.80;99.90
6252;DHT22;3159;52.414;9.784;2023-01-06T09:14:08;10.70;99.90
6252;DHT22;3159;52.414;9.784;2023-01-06T09:16:35;10.70;99.90
6252;DHT22;3159;52.414;9.784;2023-01-06T09:19:02;10.80;99.90
6252;DHT22;3159;52.414;9.784;2023-01-06T09:21:29;10.80;99.90
6252;DHT22;3159;52.414;9.784;2023-01-06T09:23:55;10.70;99.90
6252;DHT22;3159;52.414;9.784;2023-01-06T09:26:22;10.70;99.90
6252;DHT22;3159;52.414;9.784;2023-01-06T09:28:49;10.80;99.90
6252;DHT22;3159;52.414;9.784;2023-01-06T09:31:17;10.70;99.90
6252;DHT22;3159;52.414;9.784;2023-01-06T09:33:44;10.80;99.90
6252;DHT22;3159;52.414;9.784;2023-01-06T09:36:11;10.70;99.90
6252;DHT22;3159;52.414;9.784;2023-01-06T09:38:38;10.70;99.90
6252;DHT22;3159;52.414;9.784;2023-01-06T09:44:16;10.70;99.90
6252;DHT22;3159;52.414;9.784;2023-01-06T09:46:48;10.70;99.90
6252;DHT22;3159;52.414;9.784;2023-01-06T09:49:22;10.70;99.90
6252;DHT22;3159;52.414;9.784;2023-01-06T09:51:51;10.80;99.90
6252;DHT22;3159;52.414;9.784;2023-01-06T09:54:22;10.70;99.90
6252;DHT22;3159;52.414;9.784;2023-01-06T09:56:53;10.70;99.90
6252;DHT22;3159;52.414;9.784;2023-01-06T09:59:27;10.70;99.90
6252;DHT22;3159;52.414;9.784;2023-01-06T10:01:58;10.80;99.90
6252;DHT22;3159;52.414;9.784;2023-01-06T10:04:28;10.80;99.90
6252;DHT22;3159;52.414;9.784;2023-01-06T10:07:03;10.70;99.90
6252;DHT22;3159;52.414;9.784;2023-01-06T10:09:37;10.60;99.90
6252;DHT22;3159;52.414;9.784;2023-01-06T10:12:16;10.60;99.90
6252;DHT22;3159;52.414;9.784;2023-01-06T10:14:51;10.70;99.90
6252;DHT22;3159;52.414;9.784;2023-01-06T10:17:45;10.60;99.90
6252;DHT22;3159;52.414;9.784;2023-01-06T10:20:35;10.60;99.90
6252;DHT22;3159;52.414;9.784;2023-01-06T10:23:08;10.60;99.90
6252;DHT22;3159;52.414;9.784;2023-01-06T10:25:45;10.60;99.90
6252;DHT22;3159;52.414;9.784;2023-01-06T10:28:20;10.60;99.90
6252;DHT22;3159;52.414;9.784;2023-01-06T10:30:55;10.70;99.90
6252;DHT22;3159;52.414;9.784;2023-01-06T10:33:27;10.60;99.90
6252;DHT22;3159;52.414;9.784;2023-01-06T10:35:57;10.60;99.90
6252;DHT22;3159;52.414;9.784;2023-01-06T10:38:29;10.60;99.90
6252;DHT22;3159;52.414;9.784;2023-01-06T10:41:07;10.70;99.90
6252;DHT22;3159;52.414;9.784;2023-01-06T10:43:36;10.70;99.90
6252;DHT22;3159;52.414;9.784;2023-01-06T10:46:03;10.70;99.90
6252;DHT22;3159;52.414;9.784;2023-01-06T10:48:31;10.70;99.90
6252;DHT22;3159;52.414;9.784;2023-01-06T10:51:07;10.70;99.90
6252;DHT22;3159;52.414;9.784;2023-01-06T10:53:43;10.70;99.90
6252;DHT22;3159;52.414;9.784;2023-01-06T10:56:11;10.60;99.90
6252;DHT22;3159;52.414;9.784;2023-01-06T10:58:43;10.60;99.90
6252;DHT22;3159;52.414;9.784;2023-01-06T11:01:12;10.60;99.90
6252;DHT22;3159;52.414;9.784;2023-01-06T11:03:41;10.60;99.90
6252;DHT22;3159;52.414;9.784;2023-01-06T11:06:26;10.60;99.90
6252;DHT22;3159;52.414;9.784;2023-01-06T11:08:54;10.60;99.90
6252;DHT22;3159;52.414;9.784;2023-01-06T11:11:22;10.60;99.90
6252;DHT22;3159;52.414;9.784;2023-01-06T11:13:51;10.60;99.90
6252;DHT22;3159;52.414;9.784;2023-01-06T11:16:20;10.50;99.90
6252;DHT22;3159;52.414;9.784;2023-01-06T11:18:53;10.50;99.90
6252;DHT22;3159;52.414;9.784;2023-01-06T11:21:20;10.60;99.90
6252;DHT22;3159;52.414;9.784;2023-01-06T11:23:47;10.60;99.90
6252;DHT22;3159;52.414;9.784;2023-01-06T11:26:17;10.60;99.90
6252;DHT22;3159;52.414;9.784;2023-01-06T11:28:45;10.60;99.90
6252;DHT22;3159;52.414;9.784;2023-01-06T11:31:20;10.60;99.90
6252;DHT22;3159;52.414;9.784;2023-01-06T11:33:51;10.70;99.90
6252;DHT22;3159;52.414;9.784;2023-01-06T11:36:20;10.70;99.90
6252;DHT22;3159;52.414;9.784;2023-01-06T11:38:50;10.70;99.90
6252;DHT22;3159;52.414;9.784;2023-01-06T11:41:29;10.80;99.90
6252;DHT22;3159;52.414;9.784;2023-01-06T11:44:06;10.70;99.90
6252;DHT22;3159;52.414;9.784;2023-01-06T11:46:35;10.80;99.90
6252;DHT22;3159;52.414;9.784;2023-01-06T11:49:09;10.90;99.90
6252;DHT22;3159;52.414;9.784;2023-01-06T11:51:46;10.90;99.90
6252;DHT22;3159;52.414;9.784;2023-01-06T11:54:28;10.90;99.90
6252;DHT22;3159;52.414;9.784;2023-01-06T11:56:58;11.00;99.90
6252;DHT22;3159;52.414;9.784;2023-01-06T11:59:28;11.00;99.90
6252;DHT22;3159;52.414;9.784;2023-01-06T12:01:57;11.00;99.90
6252;DHT22;3159;52.414;9.784;2023-01-06T12:04:31;11.00;99.90
6252;DHT22;3159;52.414;9.784;2023-01-06T12:07:07;11.10;99.90
6252;DHT22;3159;52.414;9.784;2023-01-06T12:09:39;11.00;99.90
6252;DHT22;3159;52.414;9.784;2023-01-06T12:12:13;11.10;99.90
6252;DHT22;3159;52.414;9.784;2023-01-06T12:14:42;11.00;99.90
6252;DHT22;3159;52.414;9.784;2023-01-06T12:17:13;11.00;99.90
6252;DHT22;3159;52.414;9.784;2023-01-06T12:19:48;11.00;99.90
6252;DHT22;3159;52.414;9.784;2023-01-06T12:22:21;11.10;99.90
6252;DHT22;3159;52.414;9.784;2023-01-06T12:24:50;11.10;99.90
6252;DHT22;3159;52.414;9.784;2023-01-06T12:27:26;11.10;99.90
6252;DHT22;3159;52.414;9.784;2023-01-06T12:29:57;11.10;99.90
6252;DHT22;3159;52.414;9.784;2023-01-06T12:32:29;11.20;99.90
6252;DHT22;3159;52.414;9.784;2023-01-06T12:35:04;11.20;99.90
6252;DHT22;3159;52.414;9.784;2023-01-06T12:37:37;11.20;99.90
6252;DHT22;3159;52.414;9.784;2023-01-06T12:40:12;11.30;99.90
6252;DHT22;3159;52.414;9.784;2023-01-06T12:42:48;11.40;99.90
6252;DHT22;3159;52.414;9.784;2023-01-06T12:45:21;11.40;99.90
6252;DHT22;3159;52.414;9.784;2023-01-06T12:47:52;11.40;99.90
6252;DHT22;3159;52.414;9.784;2023-01-06T12:50:29;11.30;99.90
6252;DHT22;3159;52.414;9.784;2023-01-06T12:53:02;11.40;99.90
6252;DHT22;3159;52.414;9.784;2023-01-06T12:55:36;11.30;99.90
6252;DHT22;3159;52.414;9.784;2023-01-06T12:58:09;11.30;99.90
6252;DHT22;3159;52.414;9.784;2023-01-06T13:00:48;11.40;99.90
6252;DHT22;3159;52.414;9.784;2023-01-06T13:06:14;11.30;99.90
6252;DHT22;3159;52.414;9.784;2023-01-06T13:08:58;11.10;99.90
6252;DHT22;3159;52.414;9.784;2023-01-06T13:11:37;11.10;99.90
6252;DHT22;3159;52.414;9.784;2023-01-06T13:14:10;11.10;99.90
6252;DHT22;3159;52.414;9.784;2023-01-06T13:16:45;11.10;99.90
6252;DHT22;3159;52.414;9.784;2023-01-06T13:19:27;11.10;99.90
6252;DHT22;3159;52.414;9.784;2023-01-06T13:21:59;11.00;99.90
6252;DHT22;3159;52.414;9.784;2023-01-06T13:27:44;11.10;99.90
6252;DHT22;3159;52.414;9.784;2023-01-06T13:33:27;11.00;99.90
6252;DHT22;3159;52.414;9.784;2023-01-06T13:39:08;10.80;99.90
6252;DHT22;3159;52.414;9.784;2023-01-06T13:41:37;10.90;99.90
6252;DHT22;3159;52.414;9.784;2023-01-06T13:44:12;10.80;99.90
6252;DHT22;3159;52.414;9.784;2023-01-06T13:46:40;10.80;99.90
6252;DHT22;3159;52.414;9.784;2023-01-06T13:49:07;10.70;99.90
6252;DHT22;3159;52.414;9.784;2023-01-06T13:51:36;10.80;99.90
6252;DHT22;3159;52.414;9.784;2023-01-06T13:54:04;10.80;99.90
6252;DHT22;3159;52.414;9.784;2023-01-06T13:56:32;10.80;99.90
6252;DHT22;3159;52.414;9.784;2023-01-06T13:59:20;10.80;99.90
6252;DHT22;3159;52.414;9.784;2023-01-06T14:01:47;10.80;99.90
6252;DHT22;3159;52.414;9.784;2023-01-06T14:04:43;10.80;99.90
6252;DHT22;3159;52.414;9.784;2023-01-06T14:07:11;10.90;99.90
6252;DHT22;3159;52.414;9.784;2023-01-06T14:09:46;10.80;99.90
6252;DHT22;3159;52.414;9.784;2023-01-06T14:12:16;10.90;99.90
6252;DHT22;3159;52.414;9.784;2023-01-06T14:14:54;11.00;99.90
6252;DHT22;3159;52.414;9.784;2023-01-06T14:17:29;11.00;99.90
6252;DHT22;3159;52.414;9.784;2023-01-06T14:19:57;11.10;99.90
6252;DHT22;3159;52.414;9.784;2023-01-06T14:22:25;11.00;99.90
6252;DHT22;3159;52.414;9.784;2023-01-06T14:24:58;11.00;99.90
6252;DHT22;3159;52.414;9.784;2023-01-06T14:28:04;11.00;99.90
6252;DHT22;3159;52.414;9.784;2023-01-06T14:30:32;11.00;99.90
6252;DHT22;3159;52.414;9.784;2023-01-06T14:35:45;10.90;99.90
6252;DHT22;3159;52.414;9.784;2023-01-06T14:38:24;10.90;99.90
6252;DHT22;3159;52.414;9.784;2023-01-06T14:40:56;10.90;99.90
6252;DHT22;3159;52.414;9.784;2023-01-06T14:43:33;10.80;99.90
6252;DHT22;3159;52.414;9.784;2023-01-06T14:46:07;10.80;99.90
6252;DHT22;3159;52.414;9.784;2023-01-06T14:48:42;10.80;99.90
6252;DHT22;3159;52.414;9.784;2023-01-06T14:51:14;10.80;99.90
6252;DHT22;3159;52.414;9.784;2023-01-06T14:53:46;10.90;99.90
6252;DHT22;3159;52.414;9.784;2023-01-06T14:56:17;10.90;99.90
6252;DHT22;3159;52.414;9.784;2023-01-06T14:58:45;10.90;99.90
6252;DHT22;3159;52.414;9.784;2023-01-06T15:01:23;10.90;99.90
6252;DHT22;3159;52.414;9.784;2023-01-06T15:03:54;10.90;99.90
6252;DHT22;3159;52.414;9.784;2023-01-06T15:06:23;10.90;99.90
6252;DHT22;3159;52.414;9.784;2023-01-06T15:08:50;10.90;99.90
6252;DHT22;3159;52.414;9.784;2023-01-06T15:11:23;10.90;99.90
6252;DHT22;3159;52.414;9.784;2023-01-06T15:13:50;11.00;99.90
6252;DHT22;3159;52.414;9.784;2023-01-06T15:16:22;10.90;99.90
6252;DHT22;3159;52.414;9.784;2023-01-06T15:18:51;10.80;99.90
6252;DHT22;3159;52.414;9.784;2023-01-06T15:21:19;10.80;99.90
6252;DHT22;3159;52.414;9.784;2023-01-06T15:23:48;10.80;99.90
6252;DHT22;3159;52.414;9.784;2023-01-06T15:26:17;10.80;99.90
6252;DHT22;3159;52.414;9.784;2023-01-06T15:28:57;10.70;99.90
6252;DHT22;3159;52.414;9.784;2023-01-06T15:31:26;10.50;99.90
6252;DHT22;3159;52.414;9.784;2023-01-06T15:33:54;10.50;99.90
6252;DHT22;3159;52.414;9.784;2023-01-06T15:36:25;10.50;99.90
6252;DHT22;3159;52.414;9.784;2023-01-06T15:38:53;10.40;99.90
6252;DHT22;3159;52.414;9.784;2023-01-06T15:41:23;10.40;99.90
6252;DHT22;3159;52.414;9.784;2023-01-06T15:44:18;10.30;99.90
6252;DHT22;3159;52.414;9.784;2023-01-06T15:46:46;10.30;99.90
6252;DHT22;3159;52.414;9.784;2023-01-06T15:49:22;10.30;99.90
6252;DHT22;3159;52.414;9.784;2023-01-06T15:51:56;10.30;99.90
6252;DHT22;3159;52.414;9.784;2023-01-06T15:54:27;10.20;99.90
6252;DHT22;3159;52.414;9.784;2023-01-06T15:56:55;10.20;99.90
6252;DHT22;3159;52.414;9.784;2023-01-06T15:59:23;10.30;99.90
6252;DHT22;3159;52.414;9.784;2023-01-06T16:01:54;10.30;99.90
6252;DHT22;3159;52.414;9.784;2023-01-06T16:04:22;10.30;99.90
6252;DHT22;3159;52.414;9.784;2023-01-06T16:06:49;10.20;99.90
6252;DHT22;3159;52.414;9.784;2023-01-06T16:09:28;10.20;99.90
6252;DHT22;3159;52.414;9.784;2023-01-06T16:12:13;10.20;99.90
6252;DHT22;3159;52.414;9.784;2023-01-06T16:14:43;10.20;99.90
6252;DHT22;3159;52.414;9.784;2023-01-06T16:17:18;10.20;99.90
6252;DHT22;3159;52.414;9.784;2023-01-06T16:19:49;10.20;99.90
6252;DHT22;3159;52.414;9.784;2023-01-06T16:22:35;10.20;99.90
6252;DHT22;3159;52.414;9.784;2023-01-06T16:25:05;10.30;99.90
6252;DHT22;3159;52.414;9.784;2023-01-06T16:27:33;10.30;99.90
6252;DHT22;3159;52.414;9.784;2023-01-06T16:30:19;10.30;99.90
6252;DHT22;3159;52.414;9.784;2023-01-06T16:32:47;10.30;99.90
6252;DHT22;3159;52.414;9.784;2023-01-06T16:35:16;10.30;99.90
6252;DHT22;3159;52.414;9.784;2023-01-06T16:37:44;10.30;99.90
6252;DHT22;3159;52.414;9.784;2023-01-06T16:40:12;10.30;99.90
6252;DHT22;3159;52.414;9.784;2023-01-06T16:42:40;10.20;99.90
6252;DHT22;3159;52.414;9.784;2023-01-06T16:45:16;10.30;99.90
6252;DHT22;3159;52.414;9.784;2023-01-06T16:47:44;10.30;99.90
6252;DHT22;3159;52.414;9.784;2023-01-06T16:50:18;10.30;99.90
6252;DHT22;3159;52.414;9.784;2023-01-06T16:52:47;10.30;99.90
6252;DHT22;3159;52.414;9.784;2023-01-06T16:55:17;10.30;99.90
6252;DHT22;3159;52.414;9.784;2023-01-06T16:57:46;10.30;99.90